sensor_id;sensor_type;location;lat;lon;timestamp;P1;durP1;ratioP1;P2;durP2;ratioP2
3149;SDS011;32503;47.748;8.960;2023-05-07T00:01:50;5.60;;;5.10;;
3149;SDS011;32503;47.748;8.960;2023-05-07T00:04:17;5.93;;;5.63;;
3149;SDS011;32503;47.748;8.960;2023-05-07T00:06:44;5.17;;;4.87;;
3149;SDS011;32503;47.748;8.960;2023-05-07T00:09:11;6.03;;;5.67;;
3149;SDS011;32503;47.748;8.960;2023-05-07T00:11:38;5.10;;;4.90;;
3149;SDS011;32503;47.748;8.960;2023-05-07T00:14:05;5.70;;;5.17;;
3149;SDS011;32503;47.748;8.960;2023-05-07T00:16:32;5.90;;;5.50;;
3149;SDS011;32503;47.748;8.960;2023-05-07T00:19:01;5.60;;;5.20;;
3149;SDS011;32503;47.748;8.960;2023-05-07T00:21:28;6.87;;;6.37;;
3149;SDS011;32503;47.748;8.960;2023-05-07T00:23:55;8.70;;;5.73;;
3149;SDS011;32503;47.748;8.960;2023-05-07T00:26:22;5.47;;;5.17;;
3149;SDS011;32503;47.748;8.960;2023-05-07T00:28:49;6.00;;;5.60;;
3149;SDS011;32503;47.748;8.960;2023-05-07T00:31:16;6.13;;;5.73;;
3149;SDS011;32503;47.748;8.960;2023-05-07T00:33:43;4.90;;;4.70;;
3149;SDS011;32503;47.748;8.960;2023-05-07T00:36:12;6.40;;;5.80;;
3149;SDS011;32503;47.748;8.960;2023-05-07T00:38:39;5.97;;;5.60;;
3149;SDS011;32503;47.748;8.960;2023-05-07T00:41:06;4.73;;;4.43;;
3149;SDS011;32503;47.748;8.960;2023-05-07T00:43:33;4.23;;;4.03;;
3149;SDS011;32503;47.748;8.960;2023-05-07T00:46:00;5.40;;;5.17;;
3149;SDS011;32503;47.748;8.960;2023-05-07T00:48:27;5.00;;;4.80;;
3149;SDS011;32503;47.748;8.960;2023-05-07T00:50:54;5.40;;;5.20;;
3149;SDS011;32503;47.748;8.960;2023-05-07T00:53:24;6.30;;;5.90;;
3149;SDS011;32503;47.748;8.960;2023-05-07T00:55:51;5.07;;;4.83;;
3149;SDS011;32503;47.748;8.960;2023-05-07T00:58:19;5.10;;;4.83;;
3149;SDS011;32503;47.748;8.960;2023-05-07T01:00:47;5.57;;;5.27;;
3149;SDS011;32503;47.748;8.960;2023-05-07T01:03:15;5.13;;;4.93;;
3149;SDS011;32503;47.748;8.960;2023-05-07T01:05:42;5.63;;;5.20;;
3149;SDS011;32503;47.748;8.960;2023-05-07T01:08:11;5.87;;;5.57;;
3149;SDS011;32503;47.748;8.960;2023-05-07T01:10:41;5.83;;;5.43;;
3149;SDS011;32503;47.748;8.960;2023-05-07T01:13:09;6.07;;;5.67;;
3149;SDS011;32503;47.748;8.960;2023-05-07T01:15:37;6.03;;;5.63;;
3149;SDS011;32503;47.748;8.960;2023-05-07T01:18:06;5.23;;;5.00;;
3149;SDS011;32503;47.748;8.960;2023-05-07T01:20:33;6.57;;;6.10;;
3149;SDS011;32503;47.748;8.960;2023-05-07T01:23:01;6.27;;;5.87;;
3149;SDS011;32503;47.748;8.960;2023-05-07T01:25:30;6.33;;;5.93;;
3149;SDS011;32503;47.748;8.960;2023-05-07T01:27:57;8.57;;;6.43;;
3149;SDS011;32503;47.748;8.960;2023-05-07T01:30:26;6.07;;;5.57;;
3149;SDS011;32503;47.748;8.960;2023-05-07T01:32:56;5.73;;;5.37;;
3149;SDS011;32503;47.748;8.960;2023-05-07T01:35:30;4.93;;;4.63;;
3149;SDS011;32503;47.748;8.960;2023-05-07T01:38:05;5.73;;;5.40;;
3149;SDS011;32503;47.748;8.960;2023-05-07T01:40:33;5.10;;;4.80;;
3149;SDS011;32503;47.748;8.960;2023-05-07T01:43:00;6.43;;;5.37;;
3149;SDS011;32503;47.748;8.960;2023-05-07T01:45:29;6.60;;;5.27;;
3149;SDS011;32503;47.748;8.960;2023-05-07T01:47:58;4.90;;;4.40;;
3149;SDS011;32503;47.748;8.960;2023-05-07T01:50:25;5.43;;;5.13;;
3149;SDS011;32503;47.748;8.960;2023-05-07T01:52:53;6.80;;;6.40;;
3149;SDS011;32503;47.748;8.960;2023-05-07T01:55:21;5.07;;;4.67;;
3149;SDS011;32503;47.748;8.960;2023-05-07T01:57:48;6.40;;;6.00;;
3149;SDS011;32503;47.748;8.960;2023-05-07T02:00:16;5.20;;;4.90;;
3149;SDS011;32503;47.748;8.960;2023-05-07T02:02:44;5.80;;;4.73;;
3149;SDS011;32503;47.748;8.960;2023-05-07T02:05:11;6.20;;;5.77;;
3149;SDS011;32503;47.748;8.960;2023-05-07T02:07:39;6.17;;;5.57;;
3149;SDS011;32503;47.748;8.960;2023-05-07T02:10:06;6.23;;;5.83;;
3149;SDS011;32503;47.748;8.960;2023-05-07T02:12:36;6.00;;;5.60;;
3149;SDS011;32503;47.748;8.960;2023-05-07T02:15:03;5.27;;;4.87;;
3149;SDS011;32503;47.748;8.960;2023-05-07T02:17:31;6.27;;;5.87;;
3149;SDS011;32503;47.748;8.960;2023-05-07T02:19:58;6.07;;;5.77;;
3149;SDS011;32503;47.748;8.960;2023-05-07T02:22:25;5.80;;;5.30;;
3149;SDS011;32503;47.748;8.960;2023-05-07T02:24:52;5.80;;;5.50;;
3149;SDS011;32503;47.748;8.960;2023-05-07T02:27:19;6.60;;;6.20;;
3149;SDS011;32503;47.748;8.960;2023-05-07T02:29:47;6.93;;;6.43;;
3149;SDS011;32503;47.748;8.960;2023-05-07T02:32:14;7.53;;;6.97;;
3149;SDS011;32503;47.748;8.960;2023-05-07T02:34:41;7.17;;;6.70;;
3149;SDS011;32503;47.748;8.960;2023-05-07T02:37:09;6.57;;;6.13;;
3149;SDS011;32503;47.748;8.960;2023-05-07T02:39:36;5.77;;;5.37;;
3149;SDS011;32503;47.748;8.960;2023-05-07T02:42:03;5.93;;;5.53;;
3149;SDS011;32503;47.748;8.960;2023-05-07T02:44:30;6.97;;;6.47;;
3149;SDS011;32503;47.748;8.960;2023-05-07T02:46:58;6.47;;;5.97;;
3149;SDS011;32503;47.748;8.960;2023-05-07T02:49:25;5.60;;;5.30;;
3149;SDS011;32503;47.748;8.960;2023-05-07T02:51:52;6.43;;;5.93;;
3149;SDS011;32503;47.748;8.960;2023-05-07T02:54:20;5.50;;;5.20;;
3149;SDS011;32503;47.748;8.960;2023-05-07T02:56:47;6.80;;;6.30;;
3149;SDS011;32503;47.748;8.960;2023-05-07T02:59:14;5.37;;;5.07;;
3149;SDS011;32503;47.748;8.960;2023-05-07T03:01:41;7.00;;;6.40;;
3149;SDS011;32503;47.748;8.960;2023-05-07T03:04:11;7.10;;;6.50;;
3149;SDS011;32503;47.748;8.960;2023-05-07T03:06:38;5.90;;;5.43;;
3149;SDS011;32503;47.748;8.960;2023-05-07T03:09:05;8.03;;;7.20;;
3149;SDS011;32503;47.748;8.960;2023-05-07T03:11:32;6.13;;;5.53;;
3149;SDS011;32503;47.748;8.960;2023-05-07T03:14:00;6.47;;;6.07;;
3149;SDS011;32503;47.748;8.960;2023-05-07T03:16:27;7.20;;;6.80;;
3149;SDS011;32503;47.748;8.960;2023-05-07T03:18:55;5.83;;;5.53;;
3149;SDS011;32503;47.748;8.960;2023-05-07T03:21:23;6.77;;;6.27;;
3149;SDS011;32503;47.748;8.960;2023-05-07T03:23:51;6.50;;;6.10;;
3149;SDS011;32503;47.748;8.960;2023-05-07T03:26:18;6.00;;;5.70;;
3149;SDS011;32503;47.748;8.960;2023-05-07T03:28:45;6.00;;;5.60;;
3149;SDS011;32503;47.748;8.960;2023-05-07T03:31:12;6.13;;;5.73;;
3149;SDS011;32503;47.748;8.960;2023-05-07T03:33:49;6.57;;;6.17;;
3149;SDS011;32503;47.748;8.960;2023-05-07T03:36:17;6.23;;;5.73;;
3149;SDS011;32503;47.748;8.960;2023-05-07T03:38:46;5.30;;;5.00;;
3149;SDS011;32503;47.748;8.960;2023-05-07T03:41:14;6.23;;;5.87;;
3149;SDS011;32503;47.748;8.960;2023-05-07T03:43:41;5.43;;;5.13;;
3149;SDS011;32503;47.748;8.960;2023-05-07T03:46:08;7.23;;;6.67;;
3149;SDS011;32503;47.748;8.960;2023-05-07T03:48:35;6.00;;;5.60;;
3149;SDS011;32503;47.748;8.960;2023-05-07T03:51:03;6.90;;;6.20;;
3149;SDS011;32503;47.748;8.960;2023-05-07T03:53:30;5.57;;;5.17;;
3149;SDS011;32503;47.748;8.960;2023-05-07T03:55:58;5.73;;;5.37;;
3149;SDS011;32503;47.748;8.960;2023-05-07T03:58:25;5.50;;;5.20;;
3149;SDS011;32503;47.748;8.960;2023-05-07T04:00:52;6.30;;;5.60;;
3149;SDS011;32503;47.748;8.960;2023-05-07T04:03:19;5.33;;;5.03;;
3149;SDS011;32503;47.748;8.960;2023-05-07T04:05:46;5.67;;;5.37;;
3149;SDS011;32503;47.748;8.960;2023-05-07T04:08:13;6.70;;;6.20;;
3149;SDS011;32503;47.748;8.960;2023-05-07T04:10:40;5.20;;;4.90;;
3149;SDS011;32503;47.748;8.960;2023-05-07T04:13:08;6.13;;;5.73;;
3149;SDS011;32503;47.748;8.960;2023-05-07T04:15:35;5.50;;;5.20;;
3149;SDS011;32503;47.748;8.960;2023-05-07T04:18:03;5.90;;;5.50;;
3149;SDS011;32503;47.748;8.960;2023-05-07T04:20:30;5.57;;;5.17;;
3149;SDS011;32503;47.748;8.960;2023-05-07T04:22:57;5.73;;;5.33;;
3149;SDS011;32503;47.748;8.960;2023-05-07T04:25:24;4.90;;;4.70;;
3149;SDS011;32503;47.748;8.960;2023-05-07T04:27:51;5.80;;;5.40;;
3149;SDS011;32503;47.748;8.960;2023-05-07T04:30:20;5.93;;;5.57;;
3149;SDS011;32503;47.748;8.960;2023-05-07T04:32:47;6.90;;;6.50;;
3149;SDS011;32503;47.748;8.960;2023-05-07T04:35:14;5.57;;;5.17;;
3149;SDS011;32503;47.748;8.960;2023-05-07T04:37:41;7.50;;;5.57;;
3149;SDS011;32503;47.748;8.960;2023-05-07T04:40:08;6.20;;;5.70;;
3149;SDS011;32503;47.748;8.960;2023-05-07T04:42:35;6.87;;;5.97;;
3149;SDS011;32503;47.748;8.960;2023-05-07T04:45:03;5.77;;;5.47;;
3149;SDS011;32503;47.748;8.960;2023-05-07T04:47:32;6.23;;;5.80;;
3149;SDS011;32503;47.748;8.960;2023-05-07T04:49:59;6.23;;;5.77;;
3149;SDS011;32503;47.748;8.960;2023-05-07T04:52:26;5.40;;;5.10;;
3149;SDS011;32503;47.748;8.960;2023-05-07T04:54:53;5.60;;;5.20;;
3149;SDS011;32503;47.748;8.960;2023-05-07T04:57:20;5.50;;;5.13;;
3149;SDS011;32503;47.748;8.960;2023-05-07T04:59:47;5.00;;;4.60;;
3149;SDS011;32503;47.748;8.960;2023-05-07T05:02:15;5.30;;;4.90;;
3149;SDS011;32503;47.748;8.960;2023-05-07T05:04:43;5.33;;;4.97;;
3149;SDS011;32503;47.748;8.960;2023-05-07T05:07:10;5.73;;;5.23;;
3149;SDS011;32503;47.748;8.960;2023-05-07T05:09:38;4.40;;;4.20;;
3149;SDS011;32503;47.748;8.960;2023-05-07T05:12:05;5.13;;;4.73;;
3149;SDS011;32503;47.748;8.960;2023-05-07T05:14:33;4.90;;;4.60;;
3149;SDS011;32503;47.748;8.960;2023-05-07T05:17:00;5.70;;;5.30;;
3149;SDS011;32503;47.748;8.960;2023-05-07T05:19:27;5.23;;;5.03;;
3149;SDS011;32503;47.748;8.960;2023-05-07T05:21:55;5.53;;;5.20;;
3149;SDS011;32503;47.748;8.960;2023-05-07T05:24:22;4.83;;;4.60;;
3149;SDS011;32503;47.748;8.960;2023-05-07T05:26:49;5.80;;;5.30;;
3149;SDS011;32503;47.748;8.960;2023-05-07T05:29:19;5.33;;;5.03;;
3149;SDS011;32503;47.748;8.960;2023-05-07T05:31:45;6.03;;;5.70;;
3149;SDS011;32503;47.748;8.960;2023-05-07T05:34:12;5.40;;;5.00;;
3149;SDS011;32503;47.748;8.960;2023-05-07T05:36:40;6.90;;;6.40;;
3149;SDS011;32503;47.748;8.960;2023-05-07T05:39:08;5.73;;;5.43;;
3149;SDS011;32503;47.748;8.960;2023-05-07T05:41:35;6.00;;;5.70;;
3149;SDS011;32503;47.748;8.960;2023-05-07T05:44:02;5.80;;;5.40;;
3149;SDS011;32503;47.748;8.960;2023-05-07T05:46:29;6.03;;;5.50;;
3149;SDS011;32503;47.748;8.960;2023-05-07T05:48:56;5.33;;;4.97;;
3149;SDS011;32503;47.748;8.960;2023-05-07T05:51:23;5.00;;;4.60;;
3149;SDS011;32503;47.748;8.960;2023-05-07T05:53:51;5.40;;;5.10;;
3149;SDS011;32503;47.748;8.960;2023-05-07T05:56:19;5.57;;;5.27;;
3149;SDS011;32503;47.748;8.960;2023-05-07T05:58:47;4.80;;;4.60;;
3149;SDS011;32503;47.748;8.960;2023-05-07T06:01:14;5.73;;;5.33;;
3149;SDS011;32503;47.748;8.960;2023-05-07T06:03:41;6.23;;;5.83;;
3149;SDS011;32503;47.748;8.960;2023-05-07T06:06:08;6.23;;;5.73;;
3149;SDS011;32503;47.748;8.960;2023-05-07T06:08:35;5.27;;;4.97;;
3149;SDS011;32503;47.748;8.960;2023-05-07T06:11:02;6.10;;;5.60;;
3149;SDS011;32503;47.748;8.960;2023-05-07T06:13:30;7.73;;;6.40;;
3149;SDS011;32503;47.748;8.960;2023-05-07T06:15:57;6.27;;;5.90;;
3149;SDS011;32503;47.748;8.960;2023-05-07T06:18:24;8.07;;;5.77;;
3149;SDS011;32503;47.748;8.960;2023-05-07T06:20:52;5.73;;;5.43;;
3149;SDS011;32503;47.748;8.960;2023-05-07T06:23:20;5.37;;;5.07;;
3149;SDS011;32503;47.748;8.960;2023-05-07T06:25:48;4.77;;;4.47;;
3149;SDS011;32503;47.748;8.960;2023-05-07T06:28:16;6.50;;;6.10;;
3149;SDS011;32503;47.748;8.960;2023-05-07T06:30:44;6.10;;;5.77;;
3149;SDS011;32503;47.748;8.960;2023-05-07T06:33:11;6.63;;;6.13;;
3149;SDS011;32503;47.748;8.960;2023-05-07T06:35:38;6.57;;;6.17;;
3149;SDS011;32503;47.748;8.960;2023-05-07T06:38:05;6.37;;;5.97;;
3149;SDS011;32503;47.748;8.960;2023-05-07T06:40:32;6.23;;;5.73;;
3149;SDS011;32503;47.748;8.960;2023-05-07T06:42:59;6.17;;;5.83;;
3149;SDS011;32503;47.748;8.960;2023-05-07T06:45:26;6.43;;;5.80;;
3149;SDS011;32503;47.748;8.960;2023-05-07T06:47:55;6.43;;;6.10;;
3149;SDS011;32503;47.748;8.960;2023-05-07T06:50:22;6.57;;;6.00;;
3149;SDS011;32503;47.748;8.960;2023-05-07T06:52:49;5.30;;;5.00;;
3149;SDS011;32503;47.748;8.960;2023-05-07T06:55:16;5.23;;;4.73;;
3149;SDS011;32503;47.748;8.960;2023-05-07T06:57:44;6.60;;;6.20;;
3149;SDS011;32503;47.748;8.960;2023-05-07T07:00:11;5.60;;;5.30;;
3149;SDS011;32503;47.748;8.960;2023-05-07T07:02:40;5.80;;;5.40;;
3149;SDS011;32503;47.748;8.960;2023-05-07T07:05:08;7.00;;;6.57;;
3149;SDS011;32503;47.748;8.960;2023-05-07T07:07:35;6.63;;;6.23;;
3149;SDS011;32503;47.748;8.960;2023-05-07T07:10:02;6.10;;;5.60;;
3149;SDS011;32503;47.748;8.960;2023-05-07T07:12:30;5.17;;;4.97;;
3149;SDS011;32503;47.748;8.960;2023-05-07T07:14:57;6.50;;;5.87;;
3149;SDS011;32503;47.748;8.960;2023-05-07T07:17:24;6.43;;;6.00;;
3149;SDS011;32503;47.748;8.960;2023-05-07T07:19:51;6.00;;;5.60;;
3149;SDS011;32503;47.748;8.960;2023-05-07T07:22:20;7.00;;;6.40;;
3149;SDS011;32503;47.748;8.960;2023-05-07T07:24:47;5.40;;;5.10;;
3149;SDS011;32503;47.748;8.960;2023-05-07T07:27:14;5.43;;;5.13;;
3149;SDS011;32503;47.748;8.960;2023-05-07T07:29:41;6.10;;;5.70;;
3149;SDS011;32503;47.748;8.960;2023-05-07T07:32:08;5.93;;;5.53;;
3149;SDS011;32503;47.748;8.960;2023-05-07T07:34:35;6.77;;;6.17;;
3149;SDS011;32503;47.748;8.960;2023-05-07T07:37:02;5.83;;;5.43;;
3149;SDS011;32503;47.748;8.960;2023-05-07T07:39:32;5.23;;;5.00;;
3149;SDS011;32503;47.748;8.960;2023-05-07T07:41:59;6.67;;;6.20;;
3149;SDS011;32503;47.748;8.960;2023-05-07T07:44:27;6.77;;;6.20;;
3149;SDS011;32503;47.748;8.960;2023-05-07T07:46:54;6.27;;;5.93;;
3149;SDS011;32503;47.748;8.960;2023-05-07T07:49:21;5.60;;;5.30;;
3149;SDS011;32503;47.748;8.960;2023-05-07T07:51:48;4.87;;;4.57;;
3149;SDS011;32503;47.748;8.960;2023-05-07T07:54:16;5.50;;;5.20;;
3149;SDS011;32503;47.748;8.960;2023-05-07T07:56:44;6.10;;;5.80;;
3149;SDS011;32503;47.748;8.960;2023-05-07T07:59:11;5.70;;;5.40;;
3149;SDS011;32503;47.748;8.960;2023-05-07T08:01:42;5.77;;;5.37;;
3149;SDS011;32503;47.748;8.960;2023-05-07T08:04:10;5.93;;;5.63;;
3149;SDS011;32503;47.748;8.960;2023-05-07T08:06:37;4.97;;;4.67;;
3149;SDS011;32503;47.748;8.960;2023-05-07T08:09:04;5.07;;;4.87;;
3149;SDS011;32503;47.748;8.960;2023-05-07T08:11:31;5.60;;;5.30;;
3149;SDS011;32503;47.748;8.960;2023-05-07T08:14:00;5.43;;;5.10;;
3149;SDS011;32503;47.748;8.960;2023-05-07T08:16:27;4.90;;;4.70;;
3149;SDS011;32503;47.748;8.960;2023-05-07T08:18:55;5.20;;;4.90;;
3149;SDS011;32503;47.748;8.960;2023-05-07T08:21:22;5.00;;;4.80;;
3149;SDS011;32503;47.748;8.960;2023-05-07T08:23:49;6.13;;;5.57;;
3149;SDS011;32503;47.748;8.960;2023-05-07T08:26:16;5.93;;;5.60;;
3149;SDS011;32503;47.748;8.960;2023-05-07T08:28:43;4.10;;;3.90;;
3149;SDS011;32503;47.748;8.960;2023-05-07T08:31:12;4.83;;;4.63;;
3149;SDS011;32503;47.748;8.960;2023-05-07T08:33:39;5.07;;;4.17;;
3149;SDS011;32503;47.748;8.960;2023-05-07T08:36:06;4.47;;;4.20;;
3149;SDS011;32503;47.748;8.960;2023-05-07T08:38:33;5.07;;;4.77;;
3149;SDS011;32503;47.748;8.960;2023-05-07T08:41:00;4.23;;;3.93;;
3149;SDS011;32503;47.748;8.960;2023-05-07T08:43:28;4.47;;;4.17;;
3149;SDS011;32503;47.748;8.960;2023-05-07T08:45:57;5.10;;;4.90;;
3149;SDS011;32503;47.748;8.960;2023-05-07T08:48:29;5.10;;;4.90;;
3149;SDS011;32503;47.748;8.960;2023-05-07T08:50:57;5.20;;;5.00;;
3149;SDS011;32503;47.748;8.960;2023-05-07T08:53:25;5.90;;;5.60;;
3149;SDS011;32503;47.748;8.960;2023-05-07T08:55:52;5.07;;;4.83;;
3149;SDS011;32503;47.748;8.960;2023-05-07T08:58:19;5.67;;;5.17;;
3149;SDS011;32503;47.748;8.960;2023-05-07T09:00:46;5.80;;;5.43;;
3149;SDS011;32503;47.748;8.960;2023-05-07T09:03:14;5.73;;;5.43;;
3149;SDS011;32503;47.748;8.960;2023-05-07T09:05:42;4.37;;;4.17;;
3149;SDS011;32503;47.748;8.960;2023-05-07T09:08:09;5.10;;;4.90;;
3149;SDS011;32503;47.748;8.960;2023-05-07T09:10:41;5.03;;;4.83;;
3149;SDS011;32503;47.748;8.960;2023-05-07T09:13:08;4.90;;;4.60;;
3149;SDS011;32503;47.748;8.960;2023-05-07T09:15:38;4.87;;;4.57;;
3149;SDS011;32503;47.748;8.960;2023-05-07T09:18:05;4.50;;;4.30;;
3149;SDS011;32503;47.748;8.960;2023-05-07T09:20:32;4.40;;;4.03;;
3149;SDS011;32503;47.748;8.960;2023-05-07T09:23:01;4.90;;;4.60;;
3149;SDS011;32503;47.748;8.960;2023-05-07T09:25:28;4.80;;;4.40;;
3149;SDS011;32503;47.748;8.960;2023-05-07T09:27:57;4.30;;;4.10;;
3149;SDS011;32503;47.748;8.960;2023-05-07T09:30:27;4.30;;;4.10;;
3149;SDS011;32503;47.748;8.960;2023-05-07T09:32:55;3.77;;;3.57;;
3149;SDS011;32503;47.748;8.960;2023-05-07T09:35:24;4.97;;;4.57;;
3149;SDS011;32503;47.748;8.960;2023-05-07T09:37:52;5.07;;;4.77;;
3149;SDS011;32503;47.748;8.960;2023-05-07T09:40:22;4.27;;;4.07;;
3149;SDS011;32503;47.748;8.960;2023-05-07T09:42:51;5.10;;;4.80;;
3149;SDS011;32503;47.748;8.960;2023-05-07T09:45:21;4.93;;;4.63;;
3149;SDS011;32503;47.748;8.960;2023-05-07T09:47:49;3.80;;;3.60;;
3149;SDS011;32503;47.748;8.960;2023-05-07T09:50:22;4.40;;;4.20;;
3149;SDS011;32503;47.748;8.960;2023-05-07T09:52:54;4.20;;;3.90;;
3149;SDS011;32503;47.748;8.960;2023-05-07T09:55:23;3.90;;;3.70;;
3149;SDS011;32503;47.748;8.960;2023-05-07T09:57:52;5.07;;;4.87;;
3149;SDS011;32503;47.748;8.960;2023-05-07T10:00:20;3.97;;;3.77;;
3149;SDS011;32503;47.748;8.960;2023-05-07T10:02:48;5.10;;;4.13;;
3149;SDS011;32503;47.748;8.960;2023-05-07T10:05:17;4.37;;;4.07;;
3149;SDS011;32503;47.748;8.960;2023-05-07T10:07:45;4.20;;;4.00;;
3149;SDS011;32503;47.748;8.960;2023-05-07T10:10:13;4.43;;;4.13;;
3149;SDS011;32503;47.748;8.960;2023-05-07T10:12:43;4.50;;;4.30;;
3149;SDS011;32503;47.748;8.960;2023-05-07T10:15:11;5.07;;;4.77;;
3149;SDS011;32503;47.748;8.960;2023-05-07T10:17:39;4.77;;;4.40;;
3149;SDS011;32503;47.748;8.960;2023-05-07T10:20:07;4.33;;;4.13;;
3149;SDS011;32503;47.748;8.960;2023-05-07T10:22:37;4.20;;;4.00;;
3149;SDS011;32503;47.748;8.960;2023-05-07T10:25:09;3.33;;;3.23;;
3149;SDS011;32503;47.748;8.960;2023-05-07T10:27:45;4.43;;;4.23;;
3149;SDS011;32503;47.748;8.960;2023-05-07T10:30:16;4.07;;;3.87;;
3149;SDS011;32503;47.748;8.960;2023-05-07T10:32:53;3.40;;;3.30;;
3149;SDS011;32503;47.748;8.960;2023-05-07T10:35:31;3.57;;;3.47;;
3149;SDS011;32503;47.748;8.960;2023-05-07T10:38:07;4.40;;;4.20;;
3149;SDS011;32503;47.748;8.960;2023-05-07T10:40:34;3.57;;;3.37;;
3149;SDS011;32503;47.748;8.960;2023-05-07T10:43:04;3.70;;;3.60;;
3149;SDS011;32503;47.748;8.960;2023-05-07T10:45:31;4.20;;;4.00;;
3149;SDS011;32503;47.748;8.960;2023-05-07T10:48:05;3.63;;;3.43;;
3149;SDS011;32503;47.748;8.960;2023-05-07T10:50:33;3.93;;;3.70;;
3149;SDS011;32503;47.748;8.960;2023-05-07T10:55:52;3.67;;;3.47;;
3149;SDS011;32503;47.748;8.960;2023-05-07T10:58:54;3.00;;;2.90;;
3149;SDS011;32503;47.748;8.960;2023-05-07T11:01:49;2.93;;;2.73;;
3149;SDS011;32503;47.748;8.960;2023-05-07T11:04:17;3.97;;;3.77;;
3149;SDS011;32503;47.748;8.960;2023-05-07T11:09:59;4.13;;;3.83;;
3149;SDS011;32503;47.748;8.960;2023-05-07T11:15:38;3.13;;;3.03;;
3149;SDS011;32503;47.748;8.960;2023-05-07T11:18:11;3.80;;;3.70;;
3149;SDS011;32503;47.748;8.960;2023-05-07T11:20:46;3.60;;;3.40;;
3149;SDS011;32503;47.748;8.960;2023-05-07T11:26:25;3.37;;;3.27;;
3149;SDS011;32503;47.748;8.960;2023-05-07T11:28:53;3.23;;;3.13;;
3149;SDS011;32503;47.748;8.960;2023-05-07T11:31:24;3.37;;;3.27;;
3149;SDS011;32503;47.748;8.960;2023-05-07T11:33:53;3.00;;;2.80;;
3149;SDS011;32503;47.748;8.960;2023-05-07T11:36:21;2.73;;;2.63;;
3149;SDS011;32503;47.748;8.960;2023-05-07T11:38:51;3.00;;;2.80;;
3149;SDS011;32503;47.748;8.960;2023-05-07T11:41:18;3.50;;;3.30;;
3149;SDS011;32503;47.748;8.960;2023-05-07T11:43:57;3.00;;;2.90;;
3149;SDS011;32503;47.748;8.960;2023-05-07T11:46:27;2.90;;;2.70;;
3149;SDS011;32503;47.748;8.960;2023-05-07T11:48:55;2.90;;;2.80;;
3149;SDS011;32503;47.748;8.960;2023-05-07T11:51:23;3.03;;;2.93;;
3149;SDS011;32503;47.748;8.960;2023-05-07T11:53:52;3.20;;;3.10;;
3149;SDS011;32503;47.748;8.960;2023-05-07T11:56:20;3.17;;;3.07;;
3149;SDS011;32503;47.748;8.960;2023-05-07T11:58:47;3.20;;;3.10;;
3149;SDS011;32503;47.748;8.960;2023-05-07T12:01:16;3.83;;;3.63;;
3149;SDS011;32503;47.748;8.960;2023-05-07T12:03:45;3.10;;;2.90;;
3149;SDS011;32503;47.748;8.960;2023-05-07T12:06:13;3.70;;;3.50;;
3149;SDS011;32503;47.748;8.960;2023-05-07T12:08:42;2.90;;;2.80;;
3149;SDS011;32503;47.748;8.960;2023-05-07T12:11:13;4.30;;;4.10;;
3149;SDS011;32503;47.748;8.960;2023-05-07T12:13:43;3.50;;;3.30;;
3149;SDS011;32503;47.748;8.960;2023-05-07T12:16:10;2.83;;;2.73;;
3149;SDS011;32503;47.748;8.960;2023-05-07T12:18:38;3.00;;;2.90;;
3149;SDS011;32503;47.748;8.960;2023-05-07T12:21:07;3.50;;;3.40;;
3149;SDS011;32503;47.748;8.960;2023-05-07T12:23:36;3.40;;;3.20;;
3149;SDS011;32503;47.748;8.960;2023-05-07T12:26:04;3.73;;;3.37;;
3149;SDS011;32503;47.748;8.960;2023-05-07T12:28:35;3.37;;;3.27;;
3149;SDS011;32503;47.748;8.960;2023-05-07T12:31:04;3.43;;;3.00;;
3149;SDS011;32503;47.748;8.960;2023-05-07T12:33:32;3.37;;;3.27;;
3149;SDS011;32503;47.748;8.960;2023-05-07T12:36:02;3.50;;;3.30;;
3149;SDS011;32503;47.748;8.960;2023-05-07T12:38:37;3.57;;;3.27;;
3149;SDS011;32503;47.748;8.960;2023-05-07T12:41:06;3.27;;;3.17;;
3149;SDS011;32503;47.748;8.960;2023-05-07T12:43:35;3.30;;;3.20;;
3149;SDS011;32503;47.748;8.960;2023-05-07T12:46:03;3.53;;;3.33;;
3149;SDS011;32503;47.748;8.960;2023-05-07T12:48:31;3.53;;;3.43;;
3149;SDS011;32503;47.748;8.960;2023-05-07T12:50:59;3.60;;;3.50;;
3149;SDS011;32503;47.748;8.960;2023-05-07T12:53:28;3.40;;;3.30;;
3149;SDS011;32503;47.748;8.960;2023-05-07T12:55:58;3.57;;;3.37;;
3149;SDS011;32503;47.748;8.960;2023-05-07T12:58:26;3.93;;;3.73;;
3149;SDS011;32503;47.748;8.960;2023-05-07T13:00:55;3.90;;;3.60;;
3149;SDS011;32503;47.748;8.960;2023-05-07T13:03:24;3.60;;;3.50;;
3149;SDS011;32503;47.748;8.960;2023-05-07T13:05:54;3.40;;;3.20;;
3149;SDS011;32503;47.748;8.960;2023-05-07T13:08:24;3.47;;;3.30;;
3149;SDS011;32503;47.748;8.960;2023-05-07T13:10:59;3.53;;;3.33;;
3149;SDS011;32503;47.748;8.960;2023-05-07T13:13:28;3.60;;;3.50;;
3149;SDS011;32503;47.748;8.960;2023-05-07T13:15:56;3.97;;;3.77;;
3149;SDS011;32503;47.748;8.960;2023-05-07T13:18:24;4.10;;;3.80;;
3149;SDS011;32503;47.748;8.960;2023-05-07T13:20:51;3.20;;;3.10;;
3149;SDS011;32503;47.748;8.960;2023-05-07T13:23:18;3.30;;;3.20;;
3149;SDS011;32503;47.748;8.960;2023-05-07T13:25:46;3.80;;;3.60;;
3149;SDS011;32503;47.748;8.960;2023-05-07T13:28:15;3.07;;;2.97;;
3149;SDS011;32503;47.748;8.960;2023-05-07T13:30:42;2.90;;;2.70;;
3149;SDS011;32503;47.748;8.960;2023-05-07T13:33:09;2.10;;;2.00;;
3149;SDS011;32503;47.748;8.960;2023-05-07T13:35:36;2.07;;;1.83;;
3149;SDS011;32503;47.748;8.960;2023-05-07T13:38:04;1.63;;;1.53;;
3149;SDS011;32503;47.748;8.960;2023-05-07T13:40:31;1.90;;;1.80;;
3149;SDS011;32503;47.748;8.960;2023-05-07T13:42:58;2.17;;;1.97;;
3149;SDS011;32503;47.748;8.960;2023-05-07T13:45:28;1.87;;;1.77;;
3149;SDS011;32503;47.748;8.960;2023-05-07T13:47:56;1.83;;;1.73;;
3149;SDS011;32503;47.748;8.960;2023-05-07T13:50:23;1.70;;;1.60;;
3149;SDS011;32503;47.748;8.960;2023-05-07T13:52:51;1.80;;;1.70;;
3149;SDS011;32503;47.748;8.960;2023-05-07T13:55:19;1.73;;;1.63;;
3149;SDS011;32503;47.748;8.960;2023-05-07T13:57:48;1.93;;;1.83;;
3149;SDS011;32503;47.748;8.960;2023-05-07T14:00:22;1.47;;;1.37;;
3149;SDS011;32503;47.748;8.960;2023-05-07T14:02:51;1.63;;;1.53;;
3149;SDS011;32503;47.748;8.960;2023-05-07T14:05:18;1.90;;;1.80;;
3149;SDS011;32503;47.748;8.960;2023-05-07T14:07:45;2.67;;;2.57;;
3149;SDS011;32503;47.748;8.960;2023-05-07T14:10:14;1.90;;;1.80;;
3149;SDS011;32503;47.748;8.960;2023-05-07T14:12:41;2.60;;;1.70;;
3149;SDS011;32503;47.748;8.960;2023-05-07T14:15:08;1.60;;;1.50;;
3149;SDS011;32503;47.748;8.960;2023-05-07T14:17:36;1.60;;;1.50;;
3149;SDS011;32503;47.748;8.960;2023-05-07T14:20:05;1.90;;;1.80;;
3149;SDS011;32503;47.748;8.960;2023-05-07T14:22:34;1.50;;;1.40;;
3149;SDS011;32503;47.748;8.960;2023-05-07T14:25:01;1.40;;;1.30;;
3149;SDS011;32503;47.748;8.960;2023-05-07T14:27:29;1.60;;;1.50;;
3149;SDS011;32503;47.748;8.960;2023-05-07T14:29:56;1.77;;;1.60;;
3149;SDS011;32503;47.748;8.960;2023-05-07T14:32:23;1.40;;;1.30;;
3149;SDS011;32503;47.748;8.960;2023-05-07T14:34:50;1.83;;;1.73;;
3149;SDS011;32503;47.748;8.960;2023-05-07T14:37:18;1.67;;;1.57;;
3149;SDS011;32503;47.748;8.960;2023-05-07T14:39:45;1.50;;;1.40;;
3149;SDS011;32503;47.748;8.960;2023-05-07T14:42:12;2.00;;;1.90;;
3149;SDS011;32503;47.748;8.960;2023-05-07T14:44:39;1.77;;;1.67;;
3149;SDS011;32503;47.748;8.960;2023-05-07T14:47:06;1.93;;;1.83;;
3149;SDS011;32503;47.748;8.960;2023-05-07T14:49:33;1.77;;;1.67;;
3149;SDS011;32503;47.748;8.960;2023-05-07T14:52:01;1.70;;;1.60;;
3149;SDS011;32503;47.748;8.960;2023-05-07T14:54:29;1.70;;;1.60;;
3149;SDS011;32503;47.748;8.960;2023-05-07T14:56:56;2.10;;;2.00;;
3149;SDS011;32503;47.748;8.960;2023-05-07T14:59:23;1.90;;;1.80;;
3149;SDS011;32503;47.748;8.960;2023-05-07T15:01:50;2.00;;;1.90;;
3149;SDS011;32503;47.748;8.960;2023-05-07T15:04:17;2.13;;;2.03;;
3149;SDS011;32503;47.748;8.960;2023-05-07T15:06:44;2.20;;;2.10;;
3149;SDS011;32503;47.748;8.960;2023-05-07T15:09:12;2.90;;;1.90;;
3149;SDS011;32503;47.748;8.960;2023-05-07T15:11:40;2.83;;;2.70;;
3149;SDS011;32503;47.748;8.960;2023-05-07T15:14:07;1.70;;;1.60;;
3149;SDS011;32503;47.748;8.960;2023-05-07T15:16:35;2.30;;;2.20;;
3149;SDS011;32503;47.748;8.960;2023-05-07T15:19:02;1.80;;;1.70;;